createdAt,value
2023-01-09T00:02:12.836Z,-0.02
2023-01-09T00:04:46.169Z,-0.21
2023-01-09T00:07:20.748Z,-0.15
2023-01-09T00:09:54.325Z,-0.15
2023-01-09T00:12:28.227Z,-0.21
2023-01-09T00:15:02.118Z,-0.25
2023-01-09T00:17:35.589Z,-0.34
2023-01-09T00:20:10.760Z,-0.32
2023-01-09T00:22:45.494Z,-0.23
2023-01-09T00:25:19.290Z,-0.35
2023-01-09T00:27:52.576Z,-0.38
2023-01-09T00:30:26.230Z,-0.50
2023-01-09T00:32:59.509Z,-0.37
2023-01-09T00:35:33.096Z,-0.36
2023-01-09T00:38:07.761Z,-0.27
2023-01-09T00:40:41.191Z,-0.37
2023-01-09T00:43:14.844Z,-0.39
2023-01-09T00:45:48.380Z,-0.42
2023-01-09T00:48:27.098Z,-0.27
2023-01-09T00:51:01.073Z,-0.15
2023-01-09T00:53:39.128Z,-0.26
2023-01-09T00:56:20.859Z,-0.27
2023-01-09T00:58:54.903Z,-0.19
2023-01-09T01:01:28.197Z,-0.25
2023-01-09T01:04:22.508Z,-0.32
2023-01-09T01:07:12.931Z,-0.44
2023-01-09T01:09:47.664Z,-0.29
2023-01-09T01:12:21.612Z,-0.32
2023-01-09T01:14:55.276Z,-0.50
2023-01-09T01:17:28.906Z,-0.27
2023-01-09T01:20:02.147Z,-0.33
2023-01-09T01:22:35.583Z,-0.40
2023-01-09T01:25:11.743Z,-0.56
2023-01-09T01:27:45.727Z,-0.49
2023-01-09T01:30:20.034Z,-0.66
2023-01-09T01:32:53.097Z,-0.56
2023-01-09T01:35:26.872Z,-0.60
2023-01-09T01:38:00.473Z,-0.75
2023-01-09T01:40:35.979Z,-0.81
2023-01-09T01:43:13.654Z,-1.40
2023-01-09T01:45:47.391Z,-0.56
2023-01-09T01:48:26.084Z,-0.81
2023-01-09T01:51:03.676Z,-0.82
2023-01-09T01:53:40.711Z,-0.80
2023-01-09T01:56:18.328Z,-0.90
2023-01-09T01:58:54.606Z,-0.88
2023-01-09T02:01:30.161Z,-1.04
2023-01-09T02:04:03.940Z,-0.91
2023-01-09T02:06:38.619Z,-0.97
2023-01-09T02:09:27.702Z,-1.50
2023-01-09T02:12:17.658Z,-0.78
2023-01-09T02:14:53.356Z,-0.74
2023-01-09T02:17:41.258Z,-0.73
2023-01-09T02:20:36.912Z,-0.70
2023-01-09T02:24:07.199Z,-0.73
2023-01-09T02:27:13.164Z,-0.81
2023-01-09T02:30:10.651Z,-0.81
2023-01-09T02:32:59.747Z,-0.81
2023-01-09T02:35:45.691Z,-0.79
2023-01-09T02:38:24.946Z,-1.04
2023-01-09T02:41:06.364Z,-0.73
2023-01-09T02:43:41.057Z,-0.75
2023-01-09T02:46:22.511Z,-0.69
2023-01-09T02:48:56.638Z,-0.67
2023-01-09T02:51:37.957Z,-0.77
2023-01-09T02:54:25.713Z,-0.65
2023-01-09T02:57:23.161Z,-0.74
2023-01-09T03:00:09.276Z,-0.76
2023-01-09T03:02:51.878Z,-0.50
2023-01-09T03:05:32.167Z,-0.38
2023-01-09T03:08:09.587Z,-0.41
2023-01-09T03:10:49.680Z,-0.39
2023-01-09T03:13:26.505Z,-0.43
2023-01-09T03:16:03.912Z,-0.32
2023-01-09T03:18:41.111Z,-0.26
2023-01-09T03:21:15.241Z,-0.36
2023-01-09T03:23:50.834Z,-0.42
2023-01-09T03:26:24.524Z,-0.60
2023-01-09T03:28:57.623Z,-0.45
2023-01-09T03:31:31.319Z,-0.51
2023-01-09T03:34:06.752Z,-0.27
2023-01-09T03:36:40.055Z,-0.46
2023-01-09T03:39:13.321Z,-0.50
2023-01-09T03:41:47.339Z,-0.42
2023-01-09T03:44:20.856Z,-0.32
2023-01-09T03:46:54.096Z,-0.45
2023-01-09T03:49:28.874Z,-0.41
2023-01-09T03:52:02.414Z,-0.42
2023-01-09T03:54:36.007Z,-1.04
2023-01-09T03:57:09.434Z,-0.33
2023-01-09T03:59:42.783Z,-0.35
2023-01-09T04:02:16.222Z,-0.45
2023-01-09T04:04:51.345Z,-0.33
2023-01-09T04:07:24.914Z,-0.15
2023-01-09T04:09:58.121Z,-0.36
2023-01-09T04:12:32.225Z,-0.37
2023-01-09T04:15:07.205Z,-0.45
2023-01-09T04:17:41.159Z,-0.39
2023-01-09T04:20:16.347Z,-0.24
2023-01-09T04:22:50.230Z,-0.31
2023-01-09T04:25:23.843Z,-0.29
2023-01-09T04:27:57.370Z,-0.23
2023-01-09T04:30:30.617Z,-0.18
2023-01-09T04:33:03.923Z,-0.19
2023-01-09T04:35:38.596Z,-0.23
2023-01-09T04:38:12.020Z,-0.31
2023-01-09T04:40:48.475Z,-0.40
2023-01-09T04:43:21.969Z,-0.37
2023-01-09T04:45:55.426Z,-0.39
2023-01-09T04:48:28.859Z,-0.47
2023-01-09T04:51:03.509Z,-0.45
2023-01-09T04:53:37.352Z,-0.59
2023-01-09T04:56:10.885Z,-0.53
2023-01-09T04:58:44.215Z,-0.62
2023-01-09T05:01:17.697Z,-0.68
2023-01-09T05:03:51.095Z,-0.66
2023-01-09T05:06:26.223Z,-0.77
2023-01-09T05:08:59.810Z,-1.24
2023-01-09T05:11:33.707Z,-0.75
2023-01-09T05:14:07.390Z,-0.66
2023-01-09T05:16:40.995Z,-0.97
2023-01-09T05:19:14.382Z,-0.91
2023-01-09T05:21:49.239Z,-0.80
2023-01-09T05:24:23.093Z,-0.73
2023-01-09T05:26:56.915Z,-0.77
2023-01-09T05:29:32.253Z,-0.78
2023-01-09T05:32:06.033Z,-0.88
2023-01-09T05:34:39.243Z,-0.87
2023-01-09T05:37:14.047Z,-0.97
2023-01-09T05:39:47.482Z,-0.87
2023-01-09T05:42:21.051Z,-0.92
2023-01-09T05:44:54.710Z,-0.84
2023-01-09T05:47:28.019Z,-0.87
2023-01-09T05:50:01.271Z,-0.86
2023-01-09T05:52:36.067Z,-0.93
2023-01-09T05:55:12.183Z,-0.79
2023-01-09T05:57:45.623Z,-0.83
2023-01-09T06:00:20.392Z,-0.68
2023-01-09T06:02:53.911Z,-0.63
2023-01-09T06:05:27.315Z,-0.56
2023-01-09T06:08:02.889Z,-0.67
2023-01-09T06:10:36.123Z,-0.77
2023-01-09T06:13:09.706Z,-0.78
2023-01-09T06:15:43.466Z,-0.73
2023-01-09T06:18:17.149Z,-0.73
2023-01-09T06:20:50.389Z,-0.70
2023-01-09T06:23:25.185Z,-1.31
2023-01-09T06:25:58.543Z,-0.73
2023-01-09T06:28:31.898Z,-0.74
2023-01-09T06:31:05.637Z,-0.64
2023-01-09T06:33:39.376Z,-0.72
2023-01-09T06:36:12.876Z,-0.69
2023-01-09T06:38:47.688Z,-0.60
2023-01-09T06:41:21.013Z,-0.63
2023-01-09T06:43:54.368Z,-0.59
2023-01-09T06:46:27.924Z,-0.79
2023-01-09T06:49:01.704Z,-0.77
2023-01-09T06:51:36.667Z,-0.72
2023-01-09T06:54:11.472Z,-0.77
2023-01-09T06:56:45.075Z,-0.74
2023-01-09T06:59:18.323Z,-0.61
2023-01-09T07:01:51.873Z,-0.58
2023-01-09T07:04:25.387Z,-0.43
2023-01-09T07:06:58.875Z,-0.53
2023-01-09T07:09:33.939Z,-0.37
2023-01-09T07:12:08.758Z,-0.35
2023-01-09T07:14:42.679Z,-0.51
2023-01-09T07:17:16.023Z,-0.42
2023-01-09T07:19:49.456Z,-0.35
2023-01-09T07:22:23.401Z,-0.35
2023-01-09T07:24:58.239Z,-0.19
2023-01-09T07:27:31.746Z,-0.14
2023-01-09T07:30:05.749Z,-0.02
2023-01-09T07:32:40.500Z,0.03
2023-01-09T07:35:14.105Z,0.03
2023-01-09T07:37:47.993Z,0.19
2023-01-09T07:40:22.905Z,0.17
2023-01-09T07:42:56.148Z,0.28
2023-01-09T07:45:29.484Z,0.39
2023-01-09T07:48:02.855Z,0.56
2023-01-09T07:50:36.381Z,0.55
2023-01-09T07:53:09.972Z,0.63
2023-01-09T07:55:45.123Z,0.60
2023-01-09T07:58:18.560Z,0.69
2023-01-09T08:00:52.127Z,0.68
2023-01-09T08:03:26.919Z,0.85
2023-01-09T08:06:00.957Z,0.92
2023-01-09T08:08:34.329Z,1.24
2023-01-09T08:11:09.279Z,1.37
2023-01-09T08:13:43.195Z,1.15
2023-01-09T08:16:16.632Z,1.37
2023-01-09T08:18:50.142Z,1.53
2023-01-09T08:21:23.828Z,1.26
2023-01-09T08:23:57.470Z,1.67
2023-01-09T08:26:32.249Z,1.76
2023-01-09T08:29:06.603Z,1.79
2023-01-09T08:31:39.970Z,1.82
2023-01-09T08:34:13.596Z,1.91
2023-01-09T08:36:47.052Z,1.97
2023-01-09T08:39:20.968Z,1.93
2023-01-09T08:42:13.253Z,2.05
2023-01-09T08:45:03.749Z,2.11
2023-01-09T08:47:37.528Z,2.06
2023-01-09T08:50:12.074Z,2.15
2023-01-09T08:52:45.416Z,2.12
2023-01-09T08:55:19.122Z,2.19
2023-01-09T08:57:55.262Z,2.07
2023-01-09T09:00:29.310Z,2.11
2023-01-09T09:03:03.057Z,2.10
2023-01-09T09:05:36.161Z,2.11
2023-01-09T09:08:09.465Z,2.12
2023-01-09T09:10:43.244Z,2.08
2023-01-09T09:13:18.835Z,2.23
2023-01-09T09:15:52.651Z,2.49
2023-01-09T09:18:25.956Z,2.55
2023-01-09T09:20:59.150Z,2.62
2023-01-09T09:23:32.456Z,2.64
2023-01-09T09:26:06.317Z,2.69
2023-01-09T09:28:41.398Z,2.71
2023-01-09T09:31:14.590Z,2.60
2023-01-09T09:33:47.993Z,2.52
2023-01-09T09:36:21.321Z,2.51
2023-01-09T09:38:54.669Z,2.53
2023-01-09T09:42:20.064Z,2.38
2023-01-09T09:45:15.170Z,2.38
2023-01-09T09:47:58.534Z,2.39
2023-01-09T09:50:52.881Z,2.61
2023-01-09T09:53:30.764Z,2.58
2023-01-09T09:56:05.507Z,2.53
2023-01-09T09:58:41.226Z,2.59
2023-01-09T10:01:22.517Z,2.57
2023-01-09T10:04:00.261Z,2.49
2023-01-09T10:06:37.718Z,2.51
2023-01-09T10:09:18.559Z,2.53
2023-01-09T10:11:59.680Z,2.70
2023-01-09T10:14:34.368Z,2.61
2023-01-09T10:17:19.057Z,2.65
2023-01-09T10:20:12.208Z,2.72
2023-01-09T10:22:57.118Z,2.24
2023-01-09T10:25:40.018Z,2.60
2023-01-09T10:28:46.072Z,2.83
2023-01-09T10:31:28.911Z,2.87
2023-01-09T10:34:15.707Z,2.93
2023-01-09T10:37:06.649Z,2.89
2023-01-09T10:39:48.571Z,3.16
2023-01-09T10:42:30.838Z,3.03
2023-01-09T10:45:13.567Z,3.11
2023-01-09T10:47:47.089Z,3.19
2023-01-09T10:50:24.274Z,3.20
2023-01-09T10:52:58.325Z,3.19
2023-01-09T10:55:40.203Z,3.24
2023-01-09T10:58:15.023Z,3.26
2023-01-09T11:00:49.994Z,3.31
2023-01-09T11:03:25.275Z,3.30
2023-01-09T11:06:01.138Z,3.31
2023-01-09T11:08:40.301Z,3.31
2023-01-09T11:11:23.540Z,3.37
2023-01-09T11:14:06.816Z,3.37
2023-01-09T11:16:52.901Z,3.37
2023-01-09T11:19:28.256Z,3.44
2023-01-09T11:22:10.787Z,3.45
2023-01-09T11:24:44.327Z,3.36
2023-01-09T11:27:29.825Z,3.37
2023-01-09T11:30:20.082Z,3.40
2023-01-09T11:32:53.920Z,3.48
2023-01-09T11:35:33.088Z,3.47
2023-01-09T11:38:16.113Z,3.60
2023-01-09T11:40:51.286Z,3.58
2023-01-09T11:43:32.799Z,3.66
2023-01-09T11:46:08.052Z,3.64
2023-01-09T11:48:54.699Z,3.75
2023-01-09T11:51:29.911Z,3.79
2023-01-09T11:54:22.500Z,3.84
2023-01-09T11:56:57.084Z,3.85
2023-01-09T11:59:32.176Z,3.85
2023-01-09T12:02:41.088Z,3.85
2023-01-09T12:05:26.736Z,3.80
2023-01-09T12:08:25.189Z,3.88
2023-01-09T12:11:31.566Z,3.93
2023-01-09T12:14:26.473Z,3.86
2023-01-09T12:17:15.821Z,3.89
2023-01-09T12:20:03.789Z,3.90
2023-01-09T12:22:47.138Z,3.93
2023-01-09T12:25:31.729Z,3.94
2023-01-09T12:28:21.415Z,3.97
2023-01-09T12:31:05.369Z,4.00
2023-01-09T12:33:48.965Z,3.86
2023-01-09T12:36:31.696Z,3.91
2023-01-09T12:39:20.405Z,3.97
2023-01-09T12:42:06.240Z,3.94
2023-01-09T12:45:00.282Z,3.97
2023-01-09T12:47:45.431Z,3.94
2023-01-09T12:50:37.721Z,3.96
2023-01-09T12:53:20.869Z,3.91
2023-01-09T12:56:01.728Z,3.97
2023-01-09T12:58:44.665Z,3.80
2023-01-09T13:01:23.790Z,3.93
2023-01-09T13:04:08.655Z,3.97
2023-01-09T13:06:46.933Z,4.01
2023-01-09T13:09:27.720Z,4.01
2023-01-09T13:12:07.605Z,4.00
2023-01-09T13:14:50.760Z,4.01
2023-01-09T13:17:31.181Z,3.90
2023-01-09T13:20:13.799Z,4.05
2023-01-09T13:22:50.353Z,4.03
2023-01-09T13:25:43.426Z,3.98
2023-01-09T13:28:22.134Z,3.95
2023-01-09T13:31:18.192Z,3.92
2023-01-09T13:33:55.661Z,3.94
2023-01-09T13:36:33.097Z,3.79
2023-01-09T13:39:08.063Z,3.97
2023-01-09T13:42:06.905Z,4.05
2023-01-09T13:44:40.975Z,4.03
2023-01-09T13:47:20.994Z,4.01
2023-01-09T13:50:20.750Z,3.97
2023-01-09T13:52:54.484Z,3.97
2023-01-09T13:55:37.149Z,3.99
2023-01-09T13:58:23.574Z,3.93
2023-01-09T14:01:00.506Z,3.41
2023-01-09T14:03:37.340Z,3.89
2023-01-09T14:06:17.729Z,3.85
2023-01-09T14:09:09.560Z,3.89
2023-01-09T14:11:44.951Z,3.92
2023-01-09T14:14:29.525Z,3.93
2023-01-09T14:17:04.379Z,3.94
2023-01-09T14:19:40.524Z,3.82
2023-01-09T14:22:27.834Z,3.88
2023-01-09T14:25:09.617Z,3.77
2023-01-09T14:28:11.694Z,3.75
2023-01-09T14:31:10.353Z,3.71
2023-01-09T14:33:48.912Z,3.66
2023-01-09T14:36:29.310Z,3.62
2023-01-09T14:39:09.605Z,3.61
2023-01-09T14:42:00.765Z,3.58
2023-01-09T14:44:46.528Z,2.97
2023-01-09T14:47:25.444Z,3.39
2023-01-09T14:50:04.168Z,3.53
2023-01-09T14:52:41.660Z,3.49
2023-01-09T14:55:25.447Z,3.52
2023-01-09T14:58:11.889Z,3.52
2023-01-09T15:01:02.845Z,3.53
2023-01-09T15:03:40.589Z,3.53
2023-01-09T15:06:18.054Z,3.58
2023-01-09T15:08:58.273Z,3.43
2023-01-09T15:11:34.713Z,3.59
2023-01-09T15:14:10.346Z,3.61
2023-01-09T15:16:46.544Z,3.62
2023-01-09T15:19:20.982Z,3.60
2023-01-09T15:21:59.350Z,3.60
2023-01-09T15:24:34.678Z,3.54
2023-01-09T15:27:15.725Z,3.43
2023-01-09T15:29:49.481Z,3.64
2023-01-09T15:32:27.048Z,3.70
2023-01-09T15:35:00.373Z,3.69
2023-01-09T15:37:38.961Z,3.68
2023-01-09T15:40:25.000Z,3.64
2023-01-09T15:43:01.724Z,3.69
2023-01-09T15:45:38.573Z,3.64
2023-01-09T15:48:17.408Z,3.62
2023-01-09T15:50:53.981Z,3.62
2023-01-09T15:53:29.084Z,3.52
2023-01-09T15:56:19.683Z,3.47
2023-01-09T15:58:55.522Z,3.55
2023-01-09T16:01:32.690Z,3.56
2023-01-09T16:04:08.673Z,3.62
2023-01-09T16:06:45.529Z,3.60
2023-01-09T16:09:21.927Z,3.64
2023-01-09T16:11:59.128Z,3.55
2023-01-09T16:14:38.649Z,3.72
2023-01-09T16:17:17.798Z,3.61
2023-01-09T16:19:52.789Z,3.72
2023-01-09T16:22:29.253Z,3.72
2023-01-09T16:25:22.149Z,3.64
2023-01-09T16:28:10.194Z,3.59
2023-01-09T16:30:53.950Z,3.55
2023-01-09T16:33:29.049Z,3.61
2023-01-09T16:36:03.434Z,3.65
2023-01-09T16:38:36.640Z,3.66
2023-01-09T16:41:34.199Z,3.71
2023-01-09T16:44:09.678Z,3.63
2023-01-09T16:46:46.059Z,3.66
2023-01-09T16:49:22.787Z,3.60
2023-01-09T16:51:57.088Z,3.66
2023-01-09T16:54:31.460Z,3.70
2023-01-09T16:57:05.072Z,3.66
2023-01-09T16:59:38.586Z,3.74
2023-01-09T17:02:18.506Z,3.65
2023-01-09T17:04:52.060Z,3.68
2023-01-09T17:07:28.551Z,3.66
2023-01-09T17:10:02.299Z,3.61
2023-01-09T17:12:38.636Z,3.58
2023-01-09T17:15:12.586Z,3.49
2023-01-09T17:17:47.881Z,3.50
2023-01-09T17:20:21.601Z,3.19
2023-01-09T17:22:55.243Z,3.58
2023-01-09T17:25:45.762Z,3.66
2023-01-09T17:28:36.090Z,3.72
2023-01-09T17:31:13.104Z,3.62
2023-01-09T17:33:47.805Z,3.62
2023-01-09T17:36:26.322Z,3.00
2023-01-09T17:39:00.422Z,3.54
2023-01-09T17:41:34.515Z,3.61
2023-01-09T17:44:08.178Z,3.69
2023-01-09T17:46:43.147Z,3.61
2023-01-09T17:49:20.465Z,3.65
2023-01-09T17:51:54.107Z,3.72
2023-01-09T17:54:27.417Z,3.77
2023-01-09T17:57:02.221Z,3.76
2023-01-09T17:59:35.999Z,3.77
2023-01-09T18:02:16.925Z,3.70
2023-01-09T18:04:51.551Z,3.73
2023-01-09T18:07:25.018Z,3.74
2023-01-09T18:09:59.115Z,3.80
2023-01-09T18:12:33.569Z,3.80
2023-01-09T18:15:07.652Z,3.65
2023-01-09T18:17:40.904Z,3.70
2023-01-09T18:20:15.646Z,3.77
2023-01-09T18:22:49.713Z,3.76
2023-01-09T18:25:23.976Z,3.78
2023-01-09T18:27:57.596Z,3.75
2023-01-09T18:30:31.828Z,3.66
2023-01-09T18:33:06.194Z,3.68
2023-01-09T18:35:41.255Z,3.65
2023-01-09T18:38:15.946Z,3.71
2023-01-09T18:40:49.904Z,3.77
2023-01-09T18:43:24.868Z,3.78
2023-01-09T18:45:58.746Z,3.80
2023-01-09T18:48:32.185Z,3.68
2023-01-09T18:51:08.952Z,3.71
2023-01-09T18:53:42.627Z,3.73
2023-01-09T18:56:16.227Z,3.74
2023-01-09T18:58:50.240Z,3.73
2023-01-09T19:01:24.012Z,3.70
2023-01-09T19:03:59.479Z,3.70
2023-01-09T19:06:34.516Z,3.74
2023-01-09T19:09:08.311Z,3.66
2023-01-09T19:11:44.304Z,3.72
2023-01-09T19:14:18.513Z,3.71
2023-01-09T19:16:54.584Z,3.65
2023-01-09T19:19:29.737Z,3.69
2023-01-09T19:22:04.482Z,3.71
2023-01-09T19:24:37.787Z,3.19
2023-01-09T19:27:11.700Z,3.66
2023-01-09T19:29:45.223Z,3.72
2023-01-09T19:32:18.869Z,3.75
2023-01-09T19:34:52.312Z,3.43
2023-01-09T19:37:27.783Z,3.76
2023-01-09T19:40:01.734Z,3.76
2023-01-09T19:42:39.148Z,3.77
2023-01-09T19:45:14.445Z,3.77
2023-01-09T19:47:49.451Z,3.77
2023-01-09T19:50:25.207Z,3.76
2023-01-09T19:53:01.876Z,3.73
2023-01-09T19:55:39.857Z,3.76
2023-01-09T19:58:14.841Z,3.74
2023-01-09T20:00:51.726Z,3.77
2023-01-09T20:03:28.441Z,3.74
2023-01-09T20:06:07.195Z,3.63
2023-01-09T20:08:43.843Z,3.75
2023-01-09T20:11:18.797Z,3.77
2023-01-09T20:13:54.361Z,3.77
2023-01-09T20:16:32.453Z,3.77
2023-01-09T20:19:09.495Z,3.75
2023-01-09T20:21:45.545Z,3.75
2023-01-09T20:24:21.113Z,3.78
2023-01-09T20:26:54.841Z,3.75
2023-01-09T20:29:30.327Z,3.71
2023-01-09T20:32:06.499Z,3.68
2023-01-09T20:34:39.940Z,3.68
2023-01-09T20:37:14.632Z,3.68
2023-01-09T20:39:52.959Z,3.62
2023-01-09T20:42:26.421Z,3.64
2023-01-09T20:45:00.165Z,3.64
2023-01-09T20:47:33.807Z,3.54
2023-01-09T20:50:07.914Z,3.63
2023-01-09T20:52:41.210Z,3.58
2023-01-09T20:55:16.242Z,3.71
2023-01-09T20:57:49.498Z,3.69
2023-01-09T21:00:27.510Z,3.57
2023-01-09T21:03:00.850Z,3.54
2023-01-09T21:05:34.219Z,3.48
2023-01-09T21:08:07.777Z,3.52
2023-01-09T21:10:42.420Z,3.45
2023-01-09T21:13:16.312Z,3.54
2023-01-09T21:15:50.356Z,3.49
2023-01-09T21:18:24.396Z,3.47
2023-01-09T21:20:57.788Z,3.52
2023-01-09T21:23:31.062Z,3.51
2023-01-09T21:26:11.397Z,3.55
2023-01-09T21:28:49.112Z,3.54
2023-01-09T21:31:28.731Z,3.58
2023-01-09T21:34:03.251Z,3.62
2023-01-09T21:36:36.783Z,3.53
2023-01-09T21:39:10.516Z,3.54
2023-01-09T21:42:03.246Z,3.60
2023-01-09T21:44:56.968Z,3.62
2023-01-09T21:47:32.987Z,3.59
2023-01-09T21:50:07.277Z,3.65
2023-01-09T21:52:40.529Z,3.70
2023-01-09T21:55:13.882Z,3.70
2023-01-09T21:57:48.907Z,3.74
2023-01-09T22:00:22.615Z,3.70
2023-01-09T22:02:56.269Z,3.72
2023-01-09T22:05:29.537Z,3.73
2023-01-09T22:08:02.895Z,3.75
2023-01-09T22:10:36.295Z,3.75
2023-01-09T22:13:16.284Z,3.76
2023-01-09T22:15:50.300Z,3.74
2023-01-09T22:18:23.741Z,3.79
2023-01-09T22:21:04.611Z,3.76
2023-01-09T22:23:37.958Z,3.75
2023-01-09T22:26:13.377Z,3.77
2023-01-09T22:28:50.108Z,3.70
2023-01-09T22:31:25.915Z,3.72
2023-01-09T22:34:02.432Z,3.63
2023-01-09T22:36:36.126Z,3.70
2023-01-09T22:39:13.155Z,3.65
2023-01-09T22:41:50.697Z,3.43
2023-01-09T22:44:25.471Z,3.62
2023-01-09T22:46:59.138Z,3.70
2023-01-09T22:49:37.297Z,3.61
2023-01-09T22:52:24.672Z,3.62
2023-01-09T22:54:57.900Z,3.66
2023-01-09T22:57:31.157Z,3.69
2023-01-09T23:00:08.135Z,3.73
2023-01-09T23:02:41.557Z,3.73
2023-01-09T23:05:15.277Z,3.77
2023-01-09T23:07:48.495Z,3.80
2023-01-09T23:10:21.734Z,3.85
2023-01-09T23:12:55.321Z,3.84
2023-01-09T23:15:31.685Z,3.83
2023-01-09T23:18:06.294Z,3.84
2023-01-09T23:20:39.667Z,3.82
2023-01-09T23:23:12.874Z,3.81
2023-01-09T23:25:49.598Z,3.85
2023-01-09T23:28:23.427Z,3.64
2023-01-09T23:30:58.678Z,3.76
2023-01-09T23:33:32.523Z,3.75
2023-01-09T23:36:06.512Z,3.69
2023-01-09T23:38:39.814Z,3.72
2023-01-09T23:41:13.101Z,3.72
2023-01-09T23:43:46.002Z,3.73
2023-01-09T23:46:20.869Z,3.75
2023-01-09T23:48:54.367Z,3.75
2023-01-09T23:51:27.765Z,3.75
2023-01-09T23:54:01.014Z,3.79
2023-01-09T23:56:34.658Z,3.84
2023-01-09T23:59:09.587Z,3.84
